aviador You're here:

KFAY Decoded Metar

FAYETTEVILLE in NC, USA
Report Time2017-07-21 03:53:00
UTC Time2017-07-21 04:28:29
Flight Rules vfr VFR
Wind210° at 07 kt
W.Decomp.*RWY 22: 7.0 kt HW 0.4 kt LCW
RWY 28: 3.2 kt HW 6.2 kt LCW
W.Rank210° ranks 1
Current wind is below 210° avg. (7.0)
Visibility9999 m
Phenomena:N/A
Clouds:N/A
Expected CloudBase > 2,000 ft AGL from Temp-Dew spread
CeilingNone
Temp29°C (ISA +14)
Dew Point24°C (74% RH)
Heat Index33.5°C
QNH1017 hPa
Density Alt2,087 ft
Elevation180 ft
Report Wrong Elevation
Raw Report
METAR KFAY 210353Z 21007KT 10SM CLR 29/24 A3002 RMK AO2 SLP158 T02890244=

Extra information for KFAY:More info

Metar Taf Metar & Taf Last 4 Metars F.Rules Stats Wind Profile Meteogram Temp Stats Airport Information Weather charts Add Link Nearby VenuesMetar ALERT Operation Metar Decoded Social comments

AIRNAV info for KFAY